sensor_id;sensor_type;location;lat;lon;timestamp;P1;durP1;ratioP1;P2;durP2;ratioP2
2474;SDS011;1248;48.694;10.160;2023-05-16T00:01:18;12.50;;;10.70;;
2474;SDS011;1248;48.694;10.160;2023-05-16T00:03:45;12.67;;;10.77;;
2474;SDS011;1248;48.694;10.160;2023-05-16T00:06:12;15.77;;;10.20;;
2474;SDS011;1248;48.694;10.160;2023-05-16T00:08:41;15.60;;;11.30;;
2474;SDS011;1248;48.694;10.160;2023-05-16T00:11:08;22.67;;;12.70;;
2474;SDS011;1248;48.694;10.160;2023-05-16T00:13:35;13.70;;;11.10;;
2474;SDS011;1248;48.694;10.160;2023-05-16T00:16:03;19.00;;;11.10;;
2474;SDS011;1248;48.694;10.160;2023-05-16T00:18:31;20.07;;;11.50;;
2474;SDS011;1248;48.694;10.160;2023-05-16T00:20:58;16.47;;;10.73;;
2474;SDS011;1248;48.694;10.160;2023-05-16T00:23:26;24.90;;;11.33;;
2474;SDS011;1248;48.694;10.160;2023-05-16T00:25:54;19.10;;;11.37;;
2474;SDS011;1248;48.694;10.160;2023-05-16T00:28:21;17.33;;;10.50;;
2474;SDS011;1248;48.694;10.160;2023-05-16T00:30:48;20.23;;;10.10;;
2474;SDS011;1248;48.694;10.160;2023-05-16T00:33:15;16.87;;;10.30;;
2474;SDS011;1248;48.694;10.160;2023-05-16T00:35:42;14.57;;;10.60;;
2474;SDS011;1248;48.694;10.160;2023-05-16T00:38:10;16.83;;;11.00;;
2474;SDS011;1248;48.694;10.160;2023-05-16T00:40:37;18.20;;;10.87;;
2474;SDS011;1248;48.694;10.160;2023-05-16T00:43:05;14.50;;;11.23;;
2474;SDS011;1248;48.694;10.160;2023-05-16T00:45:32;13.70;;;10.60;;
2474;SDS011;1248;48.694;10.160;2023-05-16T00:47:59;14.43;;;11.80;;
2474;SDS011;1248;48.694;10.160;2023-05-16T00:50:26;13.43;;;10.40;;
2474;SDS011;1248;48.694;10.160;2023-05-16T00:52:53;14.50;;;11.27;;
2474;SDS011;1248;48.694;10.160;2023-05-16T00:55:21;13.73;;;11.17;;
2474;SDS011;1248;48.694;10.160;2023-05-16T00:57:48;11.83;;;10.57;;
2474;SDS011;1248;48.694;10.160;2023-05-16T01:00:17;14.97;;;11.57;;
2474;SDS011;1248;48.694;10.160;2023-05-16T01:02:45;13.60;;;10.80;;
2474;SDS011;1248;48.694;10.160;2023-05-16T01:05:12;13.07;;;10.07;;
2474;SDS011;1248;48.694;10.160;2023-05-16T01:07:39;16.60;;;10.90;;
2474;SDS011;1248;48.694;10.160;2023-05-16T01:10:07;16.00;;;11.10;;
2474;SDS011;1248;48.694;10.160;2023-05-16T01:12:36;12.57;;;10.60;;
2474;SDS011;1248;48.694;10.160;2023-05-16T01:15:07;11.93;;;9.50;;
2474;SDS011;1248;48.694;10.160;2023-05-16T01:17:37;19.67;;;10.40;;
2474;SDS011;1248;48.694;10.160;2023-05-16T01:20:12;15.43;;;10.93;;
2474;SDS011;1248;48.694;10.160;2023-05-16T01:22:51;14.47;;;11.80;;
2474;SDS011;1248;48.694;10.160;2023-05-16T01:25:26;12.53;;;10.40;;
2474;SDS011;1248;48.694;10.160;2023-05-16T01:27:59;14.03;;;10.10;;
2474;SDS011;1248;48.694;10.160;2023-05-16T01:30:31;15.07;;;10.70;;
2474;SDS011;1248;48.694;10.160;2023-05-16T01:32:59;13.60;;;11.00;;
2474;SDS011;1248;48.694;10.160;2023-05-16T01:35:26;13.53;;;10.10;;
2474;SDS011;1248;48.694;10.160;2023-05-16T01:37:57;15.27;;;10.63;;
2474;SDS011;1248;48.694;10.160;2023-05-16T01:40:33;13.40;;;10.17;;
2474;SDS011;1248;48.694;10.160;2023-05-16T01:43:07;13.63;;;10.60;;
2474;SDS011;1248;48.694;10.160;2023-05-16T01:45:38;18.50;;;11.53;;
2474;SDS011;1248;48.694;10.160;2023-05-16T01:48:11;13.20;;;10.33;;
2474;SDS011;1248;48.694;10.160;2023-05-16T01:50:49;13.57;;;11.80;;
2474;SDS011;1248;48.694;10.160;2023-05-16T01:53:21;13.87;;;11.20;;
2474;SDS011;1248;48.694;10.160;2023-05-16T01:55:51;13.57;;;11.47;;
2474;SDS011;1248;48.694;10.160;2023-05-16T01:58:20;11.83;;;10.50;;
2474;SDS011;1248;48.694;10.160;2023-05-16T02:00:49;13.70;;;11.20;;
2474;SDS011;1248;48.694;10.160;2023-05-16T02:03:18;15.93;;;10.67;;
2474;SDS011;1248;48.694;10.160;2023-05-16T02:05:45;13.70;;;11.20;;
2474;SDS011;1248;48.694;10.160;2023-05-16T02:08:12;12.40;;;11.10;;
2474;SDS011;1248;48.694;10.160;2023-05-16T02:10:40;15.90;;;11.53;;
2474;SDS011;1248;48.694;10.160;2023-05-16T02:13:07;12.20;;;11.10;;
2474;SDS011;1248;48.694;10.160;2023-05-16T02:15:35;13.07;;;11.77;;
2474;SDS011;1248;48.694;10.160;2023-05-16T02:18:02;15.23;;;11.73;;
2474;SDS011;1248;48.694;10.160;2023-05-16T02:20:30;13.03;;;11.63;;
2474;SDS011;1248;48.694;10.160;2023-05-16T02:22:57;12.10;;;10.80;;
2474;SDS011;1248;48.694;10.160;2023-05-16T02:25:24;15.70;;;12.00;;
2474;SDS011;1248;48.694;10.160;2023-05-16T02:27:52;15.33;;;11.67;;
2474;SDS011;1248;48.694;10.160;2023-05-16T02:30:19;14.77;;;11.40;;
2474;SDS011;1248;48.694;10.160;2023-05-16T02:32:47;16.27;;;11.10;;
2474;SDS011;1248;48.694;10.160;2023-05-16T02:35:14;14.37;;;10.90;;
2474;SDS011;1248;48.694;10.160;2023-05-16T02:37:41;13.17;;;11.23;;
2474;SDS011;1248;48.694;10.160;2023-05-16T02:40:09;14.53;;;11.10;;
2474;SDS011;1248;48.694;10.160;2023-05-16T02:42:37;12.17;;;11.03;;
2474;SDS011;1248;48.694;10.160;2023-05-16T02:45:04;18.73;;;11.27;;
2474;SDS011;1248;48.694;10.160;2023-05-16T02:47:32;14.17;;;11.07;;
2474;SDS011;1248;48.694;10.160;2023-05-16T02:50:00;14.77;;;11.87;;
2474;SDS011;1248;48.694;10.160;2023-05-16T02:52:28;16.90;;;12.87;;
2474;SDS011;1248;48.694;10.160;2023-05-16T02:54:55;29.53;;;11.17;;
2474;SDS011;1248;48.694;10.160;2023-05-16T02:57:22;14.87;;;11.20;;
2474;SDS011;1248;48.694;10.160;2023-05-16T02:59:49;11.10;;;9.97;;
2474;SDS011;1248;48.694;10.160;2023-05-16T03:02:16;10.80;;;9.43;;
2474;SDS011;1248;48.694;10.160;2023-05-16T03:04:43;14.90;;;11.30;;
2474;SDS011;1248;48.694;10.160;2023-05-16T03:07:11;13.13;;;10.67;;
2474;SDS011;1248;48.694;10.160;2023-05-16T03:09:39;12.23;;;10.50;;
2474;SDS011;1248;48.694;10.160;2023-05-16T03:12:06;13.20;;;9.47;;
2474;SDS011;1248;48.694;10.160;2023-05-16T03:14:33;14.50;;;10.17;;
2474;SDS011;1248;48.694;10.160;2023-05-16T03:17:00;13.87;;;11.30;;
2474;SDS011;1248;48.694;10.160;2023-05-16T03:19:27;13.30;;;10.57;;
2474;SDS011;1248;48.694;10.160;2023-05-16T03:21:55;16.47;;;10.30;;
2474;SDS011;1248;48.694;10.160;2023-05-16T03:24:23;12.90;;;10.43;;
2474;SDS011;1248;48.694;10.160;2023-05-16T03:26:50;15.00;;;10.23;;
2474;SDS011;1248;48.694;10.160;2023-05-16T03:29:17;13.30;;;10.50;;
2474;SDS011;1248;48.694;10.160;2023-05-16T03:31:44;16.30;;;10.07;;
2474;SDS011;1248;48.694;10.160;2023-05-16T03:34:11;25.97;;;11.90;;
2474;SDS011;1248;48.694;10.160;2023-05-16T03:36:39;16.33;;;12.17;;
2474;SDS011;1248;48.694;10.160;2023-05-16T03:39:07;12.83;;;10.57;;
2474;SDS011;1248;48.694;10.160;2023-05-16T03:41:35;16.90;;;9.93;;
2474;SDS011;1248;48.694;10.160;2023-05-16T03:44:02;14.40;;;10.63;;
2474;SDS011;1248;48.694;10.160;2023-05-16T03:46:30;17.93;;;10.03;;
2474;SDS011;1248;48.694;10.160;2023-05-16T03:48:57;17.53;;;10.37;;
2474;SDS011;1248;48.694;10.160;2023-05-16T03:51:24;14.23;;;10.33;;
2474;SDS011;1248;48.694;10.160;2023-05-16T03:53:51;14.20;;;10.23;;
2474;SDS011;1248;48.694;10.160;2023-05-16T03:56:18;17.50;;;13.63;;
2474;SDS011;1248;48.694;10.160;2023-05-16T03:58:47;23.30;;;11.87;;
2474;SDS011;1248;48.694;10.160;2023-05-16T04:01:14;14.50;;;11.93;;
2474;SDS011;1248;48.694;10.160;2023-05-16T04:03:41;19.20;;;11.10;;
2474;SDS011;1248;48.694;10.160;2023-05-16T04:06:09;17.00;;;11.80;;
2474;SDS011;1248;48.694;10.160;2023-05-16T04:08:36;14.50;;;11.20;;
2474;SDS011;1248;48.694;10.160;2023-05-16T04:11:04;15.30;;;11.70;;
2474;SDS011;1248;48.694;10.160;2023-05-16T04:13:31;16.77;;;11.40;;
2474;SDS011;1248;48.694;10.160;2023-05-16T04:16:00;13.67;;;12.13;;
2474;SDS011;1248;48.694;10.160;2023-05-16T04:18:27;20.47;;;12.17;;
2474;SDS011;1248;48.694;10.160;2023-05-16T04:20:54;15.33;;;11.10;;
2474;SDS011;1248;48.694;10.160;2023-05-16T04:23:21;21.73;;;13.27;;
2474;SDS011;1248;48.694;10.160;2023-05-16T04:25:48;20.37;;;15.10;;
2474;SDS011;1248;48.694;10.160;2023-05-16T04:28:15;16.73;;;12.50;;
2474;SDS011;1248;48.694;10.160;2023-05-16T04:30:42;19.70;;;14.07;;
2474;SDS011;1248;48.694;10.160;2023-05-16T04:33:11;27.00;;;13.30;;
2474;SDS011;1248;48.694;10.160;2023-05-16T04:35:38;20.73;;;14.23;;
2474;SDS011;1248;48.694;10.160;2023-05-16T04:38:05;20.67;;;14.77;;
2474;SDS011;1248;48.694;10.160;2023-05-16T04:40:33;24.70;;;15.17;;
2474;SDS011;1248;48.694;10.160;2023-05-16T04:43:00;18.20;;;14.57;;
2474;SDS011;1248;48.694;10.160;2023-05-16T04:45:27;26.10;;;14.93;;
2474;SDS011;1248;48.694;10.160;2023-05-16T04:47:54;23.13;;;14.43;;
2474;SDS011;1248;48.694;10.160;2023-05-16T04:50:23;19.50;;;15.13;;
2474;SDS011;1248;48.694;10.160;2023-05-16T04:52:50;19.20;;;15.10;;
2474;SDS011;1248;48.694;10.160;2023-05-16T04:55:17;19.47;;;15.10;;
2474;SDS011;1248;48.694;10.160;2023-05-16T04:57:44;18.80;;;14.63;;
2474;SDS011;1248;48.694;10.160;2023-05-16T05:00:12;20.13;;;15.50;;
2474;SDS011;1248;48.694;10.160;2023-05-16T05:02:40;25.17;;;17.47;;
2474;SDS011;1248;48.694;10.160;2023-05-16T05:05:08;23.90;;;16.60;;
2474;SDS011;1248;48.694;10.160;2023-05-16T05:07:37;28.73;;;16.43;;
2474;SDS011;1248;48.694;10.160;2023-05-16T05:10:05;22.97;;;15.73;;
2474;SDS011;1248;48.694;10.160;2023-05-16T05:12:33;20.07;;;16.30;;
2474;SDS011;1248;48.694;10.160;2023-05-16T05:15:01;20.33;;;16.87;;
2474;SDS011;1248;48.694;10.160;2023-05-16T05:17:28;24.00;;;16.27;;
2474;SDS011;1248;48.694;10.160;2023-05-16T05:19:55;19.97;;;16.73;;
2474;SDS011;1248;48.694;10.160;2023-05-16T05:22:22;19.33;;;15.50;;
2474;SDS011;1248;48.694;10.160;2023-05-16T05:24:51;18.43;;;15.47;;
2474;SDS011;1248;48.694;10.160;2023-05-16T05:27:18;23.43;;;18.27;;
2474;SDS011;1248;48.694;10.160;2023-05-16T05:29:45;24.90;;;16.70;;
2474;SDS011;1248;48.694;10.160;2023-05-16T05:32:12;26.67;;;17.90;;
2474;SDS011;1248;48.694;10.160;2023-05-16T05:34:39;20.87;;;17.03;;
2474;SDS011;1248;48.694;10.160;2023-05-16T05:37:06;25.53;;;15.30;;
2474;SDS011;1248;48.694;10.160;2023-05-16T05:39:33;22.80;;;16.87;;
2474;SDS011;1248;48.694;10.160;2023-05-16T05:42:01;22.67;;;17.47;;
2474;SDS011;1248;48.694;10.160;2023-05-16T05:44:28;27.80;;;19.43;;
2474;SDS011;1248;48.694;10.160;2023-05-16T05:46:56;25.70;;;19.57;;
2474;SDS011;1248;48.694;10.160;2023-05-16T05:49:23;27.37;;;20.57;;
2474;SDS011;1248;48.694;10.160;2023-05-16T05:51:50;26.27;;;20.07;;
2474;SDS011;1248;48.694;10.160;2023-05-16T05:54:17;23.30;;;19.23;;
2474;SDS011;1248;48.694;10.160;2023-05-16T05:56:45;24.70;;;20.03;;
2474;SDS011;1248;48.694;10.160;2023-05-16T05:59:13;23.30;;;19.43;;
2474;SDS011;1248;48.694;10.160;2023-05-16T06:01:41;24.77;;;18.90;;
2474;SDS011;1248;48.694;10.160;2023-05-16T06:04:08;21.67;;;18.97;;
2474;SDS011;1248;48.694;10.160;2023-05-16T06:06:35;26.47;;;19.40;;
2474;SDS011;1248;48.694;10.160;2023-05-16T06:09:04;28.10;;;19.10;;
2474;SDS011;1248;48.694;10.160;2023-05-16T06:11:31;25.43;;;21.33;;
2474;SDS011;1248;48.694;10.160;2023-05-16T06:13:58;23.43;;;19.93;;
2474;SDS011;1248;48.694;10.160;2023-05-16T06:16:27;20.87;;;18.00;;
2474;SDS011;1248;48.694;10.160;2023-05-16T06:18:54;23.23;;;20.23;;
2474;SDS011;1248;48.694;10.160;2023-05-16T06:21:21;24.20;;;19.53;;
2474;SDS011;1248;48.694;10.160;2023-05-16T06:23:48;22.17;;;17.50;;
2474;SDS011;1248;48.694;10.160;2023-05-16T06:26:16;21.67;;;19.23;;
2474;SDS011;1248;48.694;10.160;2023-05-16T06:28:43;24.90;;;19.77;;
2474;SDS011;1248;48.694;10.160;2023-05-16T06:31:10;21.30;;;18.97;;
2474;SDS011;1248;48.694;10.160;2023-05-16T06:33:38;21.97;;;18.43;;
2474;SDS011;1248;48.694;10.160;2023-05-16T06:36:05;23.27;;;17.37;;
2474;SDS011;1248;48.694;10.160;2023-05-16T06:38:33;23.83;;;20.30;;
2474;SDS011;1248;48.694;10.160;2023-05-16T06:41:00;22.00;;;19.70;;
2474;SDS011;1248;48.694;10.160;2023-05-16T06:43:27;24.37;;;18.30;;
2474;SDS011;1248;48.694;10.160;2023-05-16T06:45:54;20.63;;;18.17;;
2474;SDS011;1248;48.694;10.160;2023-05-16T06:48:21;25.53;;;18.40;;
2474;SDS011;1248;48.694;10.160;2023-05-16T06:50:49;22.90;;;18.90;;
2474;SDS011;1248;48.694;10.160;2023-05-16T06:53:17;22.60;;;18.63;;
2474;SDS011;1248;48.694;10.160;2023-05-16T06:55:44;20.70;;;18.50;;
2474;SDS011;1248;48.694;10.160;2023-05-16T06:58:11;21.17;;;18.37;;
2474;SDS011;1248;48.694;10.160;2023-05-16T07:00:38;22.03;;;18.63;;
2474;SDS011;1248;48.694;10.160;2023-05-16T07:03:06;22.23;;;17.87;;
2474;SDS011;1248;48.694;10.160;2023-05-16T07:05:33;23.13;;;18.10;;
2474;SDS011;1248;48.694;10.160;2023-05-16T07:08:02;23.40;;;17.90;;
2474;SDS011;1248;48.694;10.160;2023-05-16T07:10:29;18.67;;;16.20;;
2474;SDS011;1248;48.694;10.160;2023-05-16T07:12:56;25.80;;;18.60;;
2474;SDS011;1248;48.694;10.160;2023-05-16T07:15:26;21.77;;;18.53;;
2474;SDS011;1248;48.694;10.160;2023-05-16T07:17:53;22.47;;;17.53;;
2474;SDS011;1248;48.694;10.160;2023-05-16T07:20:20;21.03;;;17.70;;
2474;SDS011;1248;48.694;10.160;2023-05-16T07:22:47;21.37;;;18.00;;
2474;SDS011;1248;48.694;10.160;2023-05-16T07:28:37;22.07;;;17.93;;
2474;SDS011;1248;48.694;10.160;2023-05-16T07:31:04;19.97;;;17.83;;
2474;SDS011;1248;48.694;10.160;2023-05-16T07:33:32;23.27;;;19.80;;
2474;SDS011;1248;48.694;10.160;2023-05-16T07:35:59;18.90;;;17.00;;
2474;SDS011;1248;48.694;10.160;2023-05-16T07:38:27;21.60;;;18.00;;
2474;SDS011;1248;48.694;10.160;2023-05-16T07:40:54;25.37;;;19.13;;
2474;SDS011;1248;48.694;10.160;2023-05-16T07:43:21;20.47;;;18.17;;
2474;SDS011;1248;48.694;10.160;2023-05-16T07:45:49;21.93;;;18.30;;
2474;SDS011;1248;48.694;10.160;2023-05-16T07:48:16;23.27;;;19.40;;
2474;SDS011;1248;48.694;10.160;2023-05-16T07:50:43;25.63;;;18.60;;
2474;SDS011;1248;48.694;10.160;2023-05-16T07:53:10;24.57;;;20.00;;
2474;SDS011;1248;48.694;10.160;2023-05-16T07:55:37;22.77;;;19.07;;
2474;SDS011;1248;48.694;10.160;2023-05-16T07:58:04;22.10;;;18.20;;
2474;SDS011;1248;48.694;10.160;2023-05-16T08:00:31;25.80;;;19.37;;
2474;SDS011;1248;48.694;10.160;2023-05-16T08:03:00;23.20;;;20.70;;
2474;SDS011;1248;48.694;10.160;2023-05-16T08:05:27;21.30;;;17.80;;
2474;SDS011;1248;48.694;10.160;2023-05-16T08:07:54;24.33;;;18.83;;
2474;SDS011;1248;48.694;10.160;2023-05-16T08:10:21;20.70;;;18.50;;
2474;SDS011;1248;48.694;10.160;2023-05-16T08:12:48;25.20;;;19.77;;
2474;SDS011;1248;48.694;10.160;2023-05-16T08:15:17;22.70;;;18.17;;
2474;SDS011;1248;48.694;10.160;2023-05-16T08:17:44;21.33;;;18.80;;
2474;SDS011;1248;48.694;10.160;2023-05-16T08:20:13;21.23;;;19.03;;
2474;SDS011;1248;48.694;10.160;2023-05-16T08:22:40;20.10;;;18.00;;
2474;SDS011;1248;48.694;10.160;2023-05-16T08:25:07;20.13;;;17.20;;
2474;SDS011;1248;48.694;10.160;2023-05-16T08:27:34;21.07;;;16.87;;
2474;SDS011;1248;48.694;10.160;2023-05-16T08:30:01;21.00;;;17.97;;
2474;SDS011;1248;48.694;10.160;2023-05-16T08:32:29;19.23;;;17.27;;
2474;SDS011;1248;48.694;10.160;2023-05-16T08:34:56;19.07;;;16.50;;
2474;SDS011;1248;48.694;10.160;2023-05-16T08:37:24;23.23;;;17.50;;
2474;SDS011;1248;48.694;10.160;2023-05-16T08:39:51;21.60;;;16.90;;
2474;SDS011;1248;48.694;10.160;2023-05-16T08:42:18;20.60;;;17.47;;
2474;SDS011;1248;48.694;10.160;2023-05-16T08:44:45;18.30;;;16.50;;
2474;SDS011;1248;48.694;10.160;2023-05-16T08:47:15;18.60;;;16.27;;
2474;SDS011;1248;48.694;10.160;2023-05-16T08:49:45;18.83;;;16.83;;
2474;SDS011;1248;48.694;10.160;2023-05-16T08:52:13;19.77;;;17.30;;
2474;SDS011;1248;48.694;10.160;2023-05-16T08:54:43;23.93;;;17.40;;
2474;SDS011;1248;48.694;10.160;2023-05-16T08:57:11;23.57;;;18.07;;
2474;SDS011;1248;48.694;10.160;2023-05-16T08:59:39;18.87;;;17.03;;
2474;SDS011;1248;48.694;10.160;2023-05-16T09:02:07;22.83;;;17.27;;
2474;SDS011;1248;48.694;10.160;2023-05-16T09:04:34;22.80;;;17.97;;
2474;SDS011;1248;48.694;10.160;2023-05-16T09:07:02;20.97;;;17.90;;
2474;SDS011;1248;48.694;10.160;2023-05-16T09:09:30;19.67;;;16.93;;
2474;SDS011;1248;48.694;10.160;2023-05-16T09:11:59;21.90;;;16.73;;
2474;SDS011;1248;48.694;10.160;2023-05-16T09:14:26;23.63;;;17.60;;
2474;SDS011;1248;48.694;10.160;2023-05-16T09:17:01;18.07;;;16.13;;
2474;SDS011;1248;48.694;10.160;2023-05-16T09:19:31;24.57;;;16.03;;
2474;SDS011;1248;48.694;10.160;2023-05-16T09:22:02;19.00;;;15.63;;
2474;SDS011;1248;48.694;10.160;2023-05-16T09:24:30;23.20;;;17.50;;
2474;SDS011;1248;48.694;10.160;2023-05-16T09:27:06;18.57;;;15.53;;
2474;SDS011;1248;48.694;10.160;2023-05-16T09:29:33;25.60;;;18.17;;
2474;SDS011;1248;48.694;10.160;2023-05-16T09:32:03;19.70;;;17.47;;
2474;SDS011;1248;48.694;10.160;2023-05-16T09:34:31;20.37;;;15.70;;
2474;SDS011;1248;48.694;10.160;2023-05-16T09:37:04;18.37;;;16.20;;
2474;SDS011;1248;48.694;10.160;2023-05-16T09:39:31;22.10;;;16.50;;
2474;SDS011;1248;48.694;10.160;2023-05-16T09:41:59;21.43;;;15.90;;
2474;SDS011;1248;48.694;10.160;2023-05-16T09:44:26;20.83;;;16.33;;
2474;SDS011;1248;48.694;10.160;2023-05-16T09:46:54;19.30;;;16.60;;
2474;SDS011;1248;48.694;10.160;2023-05-16T09:49:21;25.40;;;16.40;;
2474;SDS011;1248;48.694;10.160;2023-05-16T09:51:49;23.30;;;14.57;;
2474;SDS011;1248;48.694;10.160;2023-05-16T09:54:27;20.37;;;15.57;;
2474;SDS011;1248;48.694;10.160;2023-05-16T09:56:55;21.23;;;16.50;;
2474;SDS011;1248;48.694;10.160;2023-05-16T09:59:23;22.87;;;15.87;;
2474;SDS011;1248;48.694;10.160;2023-05-16T10:01:51;18.20;;;15.37;;
2474;SDS011;1248;48.694;10.160;2023-05-16T10:04:18;16.30;;;14.60;;
2474;SDS011;1248;48.694;10.160;2023-05-16T10:06:45;16.23;;;13.60;;
2474;SDS011;1248;48.694;10.160;2023-05-16T10:09:14;18.80;;;16.03;;
2474;SDS011;1248;48.694;10.160;2023-05-16T10:11:41;21.37;;;14.60;;
2474;SDS011;1248;48.694;10.160;2023-05-16T10:14:09;17.03;;;15.17;;
2474;SDS011;1248;48.694;10.160;2023-05-16T10:16:38;17.07;;;15.23;;
2474;SDS011;1248;48.694;10.160;2023-05-16T10:19:08;16.67;;;14.97;;
2474;SDS011;1248;48.694;10.160;2023-05-16T10:21:37;19.33;;;13.73;;
2474;SDS011;1248;48.694;10.160;2023-05-16T10:24:05;19.30;;;14.97;;
2474;SDS011;1248;48.694;10.160;2023-05-16T10:26:33;17.20;;;13.57;;
2474;SDS011;1248;48.694;10.160;2023-05-16T10:29:00;19.20;;;14.57;;
2474;SDS011;1248;48.694;10.160;2023-05-16T10:31:27;15.00;;;13.43;;
2474;SDS011;1248;48.694;10.160;2023-05-16T10:33:56;20.53;;;15.23;;
2474;SDS011;1248;48.694;10.160;2023-05-16T10:36:23;19.77;;;16.10;;
2474;SDS011;1248;48.694;10.160;2023-05-16T10:38:50;20.23;;;15.40;;
2474;SDS011;1248;48.694;10.160;2023-05-16T10:41:18;25.17;;;15.50;;
2474;SDS011;1248;48.694;10.160;2023-05-16T10:43:54;19.20;;;17.20;;
2474;SDS011;1248;48.694;10.160;2023-05-16T10:46:22;17.57;;;14.97;;
2474;SDS011;1248;48.694;10.160;2023-05-16T10:48:49;23.53;;;16.77;;
2474;SDS011;1248;48.694;10.160;2023-05-16T10:51:33;21.00;;;15.60;;
2474;SDS011;1248;48.694;10.160;2023-05-16T10:54:05;19.23;;;15.57;;
2474;SDS011;1248;48.694;10.160;2023-05-16T10:56:34;19.37;;;15.90;;
2474;SDS011;1248;48.694;10.160;2023-05-16T10:59:02;17.03;;;15.20;;
2474;SDS011;1248;48.694;10.160;2023-05-16T11:01:31;17.60;;;14.90;;
2474;SDS011;1248;48.694;10.160;2023-05-16T11:03:59;18.40;;;16.13;;
2474;SDS011;1248;48.694;10.160;2023-05-16T11:06:52;18.27;;;16.20;;
2474;SDS011;1248;48.694;10.160;2023-05-16T11:09:22;21.27;;;15.83;;
2474;SDS011;1248;48.694;10.160;2023-05-16T11:11:54;18.90;;;15.60;;
2474;SDS011;1248;48.694;10.160;2023-05-16T11:14:23;16.37;;;14.50;;
2474;SDS011;1248;48.694;10.160;2023-05-16T11:16:53;18.10;;;15.63;;
2474;SDS011;1248;48.694;10.160;2023-05-16T11:19:29;16.33;;;14.23;;
2474;SDS011;1248;48.694;10.160;2023-05-16T11:22:05;18.23;;;15.40;;
2474;SDS011;1248;48.694;10.160;2023-05-16T11:24:34;17.80;;;14.37;;
2474;SDS011;1248;48.694;10.160;2023-05-16T11:27:02;19.20;;;14.97;;
2474;SDS011;1248;48.694;10.160;2023-05-16T11:29:30;16.90;;;14.17;;
2474;SDS011;1248;48.694;10.160;2023-05-16T11:31:58;16.53;;;14.60;;
2474;SDS011;1248;48.694;10.160;2023-05-16T11:34:25;15.10;;;13.40;;
2474;SDS011;1248;48.694;10.160;2023-05-16T11:36:52;23.17;;;14.93;;
2474;SDS011;1248;48.694;10.160;2023-05-16T11:39:22;19.37;;;15.90;;
2474;SDS011;1248;48.694;10.160;2023-05-16T11:41:50;19.33;;;14.97;;
2474;SDS011;1248;48.694;10.160;2023-05-16T11:44:17;23.93;;;15.50;;
2474;SDS011;1248;48.694;10.160;2023-05-16T11:46:44;21.80;;;15.60;;
2474;SDS011;1248;48.694;10.160;2023-05-16T11:49:11;18.00;;;14.90;;
2474;SDS011;1248;48.694;10.160;2023-05-16T11:51:38;15.70;;;13.60;;
2474;SDS011;1248;48.694;10.160;2023-05-16T11:54:06;15.73;;;13.47;;
2474;SDS011;1248;48.694;10.160;2023-05-16T11:56:36;16.03;;;13.60;;
2474;SDS011;1248;48.694;10.160;2023-05-16T11:59:04;14.87;;;11.83;;
2474;SDS011;1248;48.694;10.160;2023-05-16T12:01:32;15.50;;;12.70;;
2474;SDS011;1248;48.694;10.160;2023-05-16T12:03:59;14.80;;;12.23;;
2474;SDS011;1248;48.694;10.160;2023-05-16T12:06:27;17.13;;;12.50;;
2474;SDS011;1248;48.694;10.160;2023-05-16T12:08:55;15.63;;;11.33;;
2474;SDS011;1248;48.694;10.160;2023-05-16T12:11:22;14.40;;;12.27;;
2474;SDS011;1248;48.694;10.160;2023-05-16T12:13:51;17.37;;;11.07;;
2474;SDS011;1248;48.694;10.160;2023-05-16T12:16:18;15.97;;;12.93;;
2474;SDS011;1248;48.694;10.160;2023-05-16T12:18:46;14.10;;;10.83;;
2474;SDS011;1248;48.694;10.160;2023-05-16T12:21:14;14.20;;;11.27;;
2474;SDS011;1248;48.694;10.160;2023-05-16T12:23:41;15.07;;;12.30;;
2474;SDS011;1248;48.694;10.160;2023-05-16T12:26:09;12.87;;;11.50;;
2474;SDS011;1248;48.694;10.160;2023-05-16T12:28:36;13.40;;;10.93;;
2474;SDS011;1248;48.694;10.160;2023-05-16T12:31:11;11.97;;;10.27;;
2474;SDS011;1248;48.694;10.160;2023-05-16T12:33:45;13.50;;;10.17;;
2474;SDS011;1248;48.694;10.160;2023-05-16T12:36:12;15.37;;;11.00;;
2474;SDS011;1248;48.694;10.160;2023-05-16T12:38:41;11.03;;;9.93;;
2474;SDS011;1248;48.694;10.160;2023-05-16T12:41:16;12.73;;;9.70;;
2474;SDS011;1248;48.694;10.160;2023-05-16T12:43:43;10.50;;;9.27;;
2474;SDS011;1248;48.694;10.160;2023-05-16T12:46:12;13.93;;;10.40;;
2474;SDS011;1248;48.694;10.160;2023-05-16T12:48:39;11.23;;;9.27;;
2474;SDS011;1248;48.694;10.160;2023-05-16T12:51:11;11.03;;;9.00;;
2474;SDS011;1248;48.694;10.160;2023-05-16T12:53:42;8.73;;;7.70;;
2474;SDS011;1248;48.694;10.160;2023-05-16T12:56:10;10.13;;;9.00;;
2474;SDS011;1248;48.694;10.160;2023-05-16T12:58:38;10.10;;;9.00;;
2474;SDS011;1248;48.694;10.160;2023-05-16T13:01:05;12.30;;;9.17;;
2474;SDS011;1248;48.694;10.160;2023-05-16T13:03:34;10.70;;;9.53;;
2474;SDS011;1248;48.694;10.160;2023-05-16T13:06:01;12.67;;;9.97;;
2474;SDS011;1248;48.694;10.160;2023-05-16T13:08:30;12.80;;;10.30;;
2474;SDS011;1248;48.694;10.160;2023-05-16T13:10:57;11.50;;;10.37;;
2474;SDS011;1248;48.694;10.160;2023-05-16T13:13:24;10.47;;;9.30;;
2474;SDS011;1248;48.694;10.160;2023-05-16T13:15:51;12.00;;;10.77;;
2474;SDS011;1248;48.694;10.160;2023-05-16T13:18:18;12.57;;;10.00;;
2474;SDS011;1248;48.694;10.160;2023-05-16T13:20:47;12.73;;;10.63;;
2474;SDS011;1248;48.694;10.160;2023-05-16T13:23:14;11.00;;;9.80;;
2474;SDS011;1248;48.694;10.160;2023-05-16T13:25:41;13.90;;;9.90;;
2474;SDS011;1248;48.694;10.160;2023-05-16T13:28:08;11.67;;;10.47;;
2474;SDS011;1248;48.694;10.160;2023-05-16T13:30:35;11.40;;;10.17;;
2474;SDS011;1248;48.694;10.160;2023-05-16T13:33:02;15.30;;;11.10;;
2474;SDS011;1248;48.694;10.160;2023-05-16T13:35:29;12.60;;;10.60;;
2474;SDS011;1248;48.694;10.160;2023-05-16T13:37:58;12.53;;;10.80;;
2474;SDS011;1248;48.694;10.160;2023-05-16T13:40:25;14.53;;;11.00;;
2474;SDS011;1248;48.694;10.160;2023-05-16T13:42:52;12.70;;;9.60;;
2474;SDS011;1248;48.694;10.160;2023-05-16T13:45:19;14.27;;;11.07;;
2474;SDS011;1248;48.694;10.160;2023-05-16T13:47:46;12.87;;;11.43;;
2474;SDS011;1248;48.694;10.160;2023-05-16T13:50:13;11.50;;;10.30;;
2474;SDS011;1248;48.694;10.160;2023-05-16T13:52:40;13.60;;;11.00;;
2474;SDS011;1248;48.694;10.160;2023-05-16T13:55:09;13.90;;;10.77;;
2474;SDS011;1248;48.694;10.160;2023-05-16T13:57:36;13.30;;;10.60;;
2474;SDS011;1248;48.694;10.160;2023-05-16T14:00:04;15.40;;;10.43;;
2474;SDS011;1248;48.694;10.160;2023-05-16T14:02:37;14.37;;;10.13;;
2474;SDS011;1248;48.694;10.160;2023-05-16T14:05:05;14.63;;;10.70;;
2474;SDS011;1248;48.694;10.160;2023-05-16T14:07:32;14.20;;;10.13;;
2474;SDS011;1248;48.694;10.160;2023-05-16T14:09:59;12.47;;;9.80;;
2474;SDS011;1248;48.694;10.160;2023-05-16T14:12:28;14.33;;;10.07;;
2474;SDS011;1248;48.694;10.160;2023-05-16T14:14:55;10.90;;;9.60;;
2474;SDS011;1248;48.694;10.160;2023-05-16T14:17:23;11.40;;;10.03;;
2474;SDS011;1248;48.694;10.160;2023-05-16T14:19:51;12.70;;;9.40;;
2474;SDS011;1248;48.694;10.160;2023-05-16T14:22:18;12.97;;;9.23;;
2474;SDS011;1248;48.694;10.160;2023-05-16T14:24:45;13.60;;;8.77;;
2474;SDS011;1248;48.694;10.160;2023-05-16T14:27:12;9.77;;;8.10;;
2474;SDS011;1248;48.694;10.160;2023-05-16T14:29:42;8.97;;;8.00;;
2474;SDS011;1248;48.694;10.160;2023-05-16T14:32:09;9.48;;;8.15;;
2474;SDS011;1248;48.694;10.160;2023-05-16T14:34:37;8.97;;;8.07;;
2474;SDS011;1248;48.694;10.160;2023-05-16T14:37:04;9.60;;;7.97;;
2474;SDS011;1248;48.694;10.160;2023-05-16T14:39:31;10.10;;;6.90;;
2474;SDS011;1248;48.694;10.160;2023-05-16T14:41:58;10.00;;;7.03;;
2474;SDS011;1248;48.694;10.160;2023-05-16T14:44:25;7.73;;;6.37;;